Wednesday, October 18, 2017, 6:15 PM EDT
Back to Local

KMVY, Vineyard Haven Marthas Vin

Location: Vineyard Haven, MA, United States Lat: 41.4
Local Time: 6:15 PM EDT (22:15 GMT) Lon: -70.617
Time Zone: US/Eastern Elev: 68 ft

Show me the last for .
Show Decoded

2017-10-18 17:53 METAR KMVY 182153Z 22005KT 10SM CLR 15/12 A3026 RMK AO2 SLP246 T01500122 =
2017-10-18 16:53 METAR KMVY 182053Z 23005KT 10SM CLR 18/12 A3025 RMK AO2 SLP242 T01780117 53003 =
2017-10-18 15:53 METAR KMVY 181953Z 24007KT 10SM CLR 19/09 A3024 RMK AO2 SLP241 T01940094 =
2017-10-18 14:53 METAR KMVY 181853Z 26005KT 10SM CLR 20/09 A3024 RMK AO2 SLP239 T02000094 =
2017-10-18 13:53 METAR KMVY 181753Z 29008KT 10SM CLR 19/08 A3024 RMK AO2 SLP239 T01940083 10194
                 20133 58015 =
2017-10-18 11:53 METAR KMVY 181553Z 27009KT 10SM CLR 19/08 A3028 RMK AO2 SLP254 T01890083 =
2017-10-18 10:53 METAR KMVY 181453Z 26011KT 10SM CLR 18/09 A3028 RMK AO2 SLP254 T01780094 51004 =
2017-10-18 09:53 METAR KMVY 181353Z 27010KT 10SM CLR 17/11 A3028 RMK AO2 SLP253 T01670111 =
2017-10-18 08:53 METAR KMVY 181253Z 25008KT 10SM CLR 16/10 A3027 RMK AO2 SLP251 T01560100 =
2017-10-18 07:53 METAR KMVY 181153Z 26007KT 10SM CLR 13/09 A3027 RMK AO2 SLP249 T01280094 10128
                 20061 53008 =
2017-10-18 06:53 METAR KMVY 181053Z 22009KT 10SM CLR 12/08 A3026 RMK AO2 SLP245 T01220083 =
2017-10-18 05:53 METAR KMVY 180953Z 24006KT 10SM CLR 11/08 A3026 RMK AO2 SLP245 T01110078 =
2017-10-18 04:53 METAR KMVY 180853Z AUTO 23005KT 10SM CLR 11/07 A3024 RMK AO2 SLP241 T01060072
                 55004 =
2017-10-18 03:53 METAR KMVY 180753Z AUTO 23004KT 10SM CLR 08/06 A3024 RMK AO2 SLP240 T00780056 =
2017-10-18 02:53 METAR KMVY 180653Z AUTO 24004KT 10SM CLR 07/04 A3025 RMK AO2 SLP243 T00720044 =
2017-10-18 01:53 METAR KMVY 180553Z AUTO 25004KT 10SM CLR 08/05 A3026 RMK AO2 SLP246 T00780050
                 10089 20011 56009 =
2017-10-18 00:53 METAR KMVY 180453Z AUTO 25004KT 10SM CLR 07/04 A3026 RMK AO2 SLP247 T00670039
                 401390011 =
2017-10-17 23:53 METAR KMVY 180353Z AUTO 25005KT 10SM CLR 08/04 A3027 RMK AO2 SLP250 T00780039 =
2017-10-17 22:53 METAR KMVY 180253Z AUTO 25004KT 10SM CLR 07/04 A3029 RMK AO2 SLP255 T00670039
                 51006 =
2017-10-17 21:53 METAR KMVY 180153Z 26003KT 10SM CLR 06/03 A3028 RMK AO2 SLP255 T00560028 =
2017-10-17 20:53 METAR KMVY 180053Z 26003KT 10SM CLR 02/01 A3027 RMK AO2 SLP252 T00220011 =
2017-10-17 19:53 METAR KMVY 172353Z 25006KT 10SM CLR 06/03 A3027 RMK AO2 SLP249 T00610033 10139
                 20033 51008 =
2017-10-17 18:53 METAR KMVY 172253Z 23003KT 10SM CLR 06/03 A3026 RMK AO2 SLP248 T00610033 =

Support USWX by starting your Amazon purchase here.